createdAt,value
2023-01-30T00:01:19.885Z,11.63
2023-01-30T00:03:47.257Z,12.55
2023-01-30T00:06:14.543Z,12.18
2023-01-30T00:08:41.428Z,13.05
2023-01-30T00:11:11.688Z,11.70
2023-01-30T00:13:40.429Z,12.48
2023-01-30T00:16:09.803Z,13.43
2023-01-30T00:18:38.628Z,11.77
2023-01-30T00:21:08.423Z,11.30
2023-01-30T00:23:36.961Z,11.65
2023-01-30T00:26:05.021Z,13.50
2023-01-30T00:28:32.501Z,11.88
2023-01-30T00:30:59.578Z,11.85
2023-01-30T00:33:27.758Z,12.02
2023-01-30T00:35:56.893Z,13.10
2023-01-30T00:38:24.452Z,12.48
2023-01-30T00:40:51.298Z,12.15
2023-01-30T00:43:38.867Z,11.35
2023-01-30T00:46:33.180Z,11.90
2023-01-30T00:49:00.109Z,12.25
2023-01-30T00:51:27.137Z,11.52
2023-01-30T00:53:54.305Z,12.15
2023-01-30T00:56:21.219Z,12.32
2023-01-30T00:58:48.676Z,12.02
2023-01-30T01:01:15.650Z,12.32
2023-01-30T01:03:43.653Z,11.73
2023-01-30T01:06:11.089Z,11.55
2023-01-30T01:08:38.231Z,10.90
2023-01-30T01:11:05.282Z,11.60
2023-01-30T01:13:33.247Z,12.95
2023-01-30T01:16:00.259Z,13.25
2023-01-30T01:18:27.295Z,11.55
2023-01-30T01:20:54.447Z,12.07
2023-01-30T01:23:21.518Z,12.02
2023-01-30T01:25:50.054Z,12.10
2023-01-30T01:28:21.787Z,12.23
2023-01-30T01:30:48.723Z,11.43
2023-01-30T01:33:15.860Z,14.00
2023-01-30T01:35:43.039Z,12.07
2023-01-30T01:38:10.373Z,11.30
2023-01-30T01:40:57.839Z,12.57
2023-01-30T01:43:26.031Z,12.48
2023-01-30T01:45:58.162Z,11.45
2023-01-30T01:48:40.636Z,12.05
2023-01-30T01:51:21.203Z,11.50
2023-01-30T01:53:58.831Z,11.88
2023-01-30T01:56:26.243Z,11.70
2023-01-30T01:58:58.231Z,11.15
2023-01-30T02:01:25.270Z,11.68
2023-01-30T02:03:58.899Z,11.27
2023-01-30T02:06:25.980Z,11.30
2023-01-30T02:09:00.328Z,10.63
2023-01-30T02:11:34.928Z,11.50
2023-01-30T02:14:06.063Z,11.02
2023-01-30T02:16:34.355Z,11.55
2023-01-30T02:19:11.541Z,12.60
2023-01-30T02:21:57.238Z,12.27
2023-01-30T02:24:48.156Z,10.75
2023-01-30T02:27:34.131Z,10.73
2023-01-30T02:30:39.384Z,12.82
2023-01-30T02:33:09.536Z,11.77
2023-01-30T02:35:36.345Z,11.35
2023-01-30T02:38:21.448Z,10.15
2023-01-30T02:41:07.088Z,11.15
2023-01-30T02:44:04.375Z,10.75
2023-01-30T02:46:55.505Z,10.10
2023-01-30T02:49:41.085Z,11.30
2023-01-30T02:52:11.688Z,11.93
2023-01-30T02:54:38.575Z,11.82
2023-01-30T02:57:21.579Z,12.60
2023-01-30T02:59:59.512Z,12.15
2023-01-30T03:02:52.125Z,17.73
2023-01-30T03:05:53.787Z,18.80
2023-01-30T03:08:59.135Z,14.32
2023-01-30T03:28:02.534Z,15.48
2023-01-30T03:30:29.950Z,13.73
2023-01-30T03:33:06.648Z,11.32
2023-01-30T03:35:36.445Z,14.10
2023-01-30T03:38:03.541Z,11.52
2023-01-30T03:40:30.640Z,13.30
2023-01-30T03:42:58.674Z,11.52
2023-01-30T03:45:26.451Z,11.65
2023-01-30T03:47:53.570Z,12.95
2023-01-30T03:50:20.445Z,13.20
2023-01-30T03:52:47.689Z,14.38
2023-01-30T03:55:18.442Z,13.15
2023-01-30T03:57:45.562Z,14.57
2023-01-30T04:00:13.056Z,13.95
2023-01-30T04:02:50.460Z,15.85
2023-01-30T04:05:18.780Z,13.00
2023-01-30T04:07:57.074Z,11.05
2023-01-30T04:10:25.393Z,12.82
2023-01-30T04:12:52.465Z,12.48
2023-01-30T04:15:20.655Z,13.95
2023-01-30T04:18:19.052Z,14.52
2023-01-30T04:20:50.310Z,14.27
2023-01-30T04:23:22.316Z,15.10
2023-01-30T04:25:50.685Z,16.35
2023-01-30T04:28:19.909Z,12.20
2023-01-30T04:30:47.594Z,12.05
2023-01-30T04:33:35.573Z,14.57
2023-01-30T04:36:05.269Z,13.45
2023-01-30T04:38:33.215Z,13.43
2023-01-30T04:41:01.155Z,12.90
2023-01-30T04:43:31.086Z,14.07
2023-01-30T04:46:17.547Z,13.45
2023-01-30T04:48:44.759Z,15.48
2023-01-30T04:51:11.666Z,13.73
2023-01-30T04:53:38.874Z,12.75
2023-01-30T04:56:06.739Z,14.27
2023-01-30T04:58:33.611Z,15.20
2023-01-30T05:01:37.341Z,15.70
2023-01-30T05:04:06.023Z,13.40
2023-01-30T05:06:34.764Z,13.68
2023-01-30T05:09:02.097Z,17.83
2023-01-30T05:11:30.632Z,16.42
2023-01-30T05:13:58.583Z,13.88
2023-01-30T05:16:25.628Z,13.57
2023-01-30T05:18:52.931Z,15.43
2023-01-30T05:21:22.685Z,16.17
2023-01-30T05:23:51.043Z,13.65
2023-01-30T05:26:18.002Z,15.52
2023-01-30T05:28:44.964Z,15.05
2023-01-30T05:31:13.863Z,17.83
2023-01-30T05:33:41.193Z,14.13
2023-01-30T05:36:13.582Z,16.70
2023-01-30T05:38:40.424Z,15.68
2023-01-30T05:41:08.792Z,17.80
2023-01-30T05:43:35.768Z,16.63
2023-01-30T05:46:04.643Z,21.77
2023-01-30T05:48:32.957Z,17.98
2023-01-30T05:51:00.305Z,19.67
2023-01-30T05:53:30.240Z,17.55
2023-01-30T05:55:59.126Z,19.60
2023-01-30T05:58:27.530Z,15.93
2023-01-30T06:00:54.584Z,16.10
2023-01-30T06:03:21.657Z,19.33
2023-01-30T06:05:48.553Z,19.60
2023-01-30T06:08:15.534Z,18.48
2023-01-30T06:10:42.472Z,20.27
2023-01-30T06:13:11.177Z,16.92
2023-01-30T06:15:38.399Z,17.42
2023-01-30T06:18:05.587Z,15.88
2023-01-30T06:20:32.501Z,16.13
2023-01-30T06:22:59.300Z,13.82
2023-01-30T06:25:27.406Z,17.83
2023-01-30T06:27:54.432Z,20.40
2023-01-30T06:30:21.563Z,17.75
2023-01-30T06:32:52.049Z,16.25
2023-01-30T06:35:19.496Z,17.45
2023-01-30T06:37:46.686Z,24.40
2023-01-30T06:40:13.879Z,17.73
2023-01-30T06:42:48.287Z,21.13
2023-01-30T06:45:18.984Z,19.35
2023-01-30T06:47:54.686Z,24.05
2023-01-30T06:50:24.951Z,19.98
2023-01-30T06:52:53.339Z,24.13
2023-01-30T06:55:23.026Z,26.80
2023-01-30T06:57:50.829Z,29.23
2023-01-30T07:00:20.118Z,25.73
2023-01-30T07:02:47.646Z,23.98
2023-01-30T07:05:14.731Z,21.98
2023-01-30T07:07:41.757Z,25.13
2023-01-30T07:10:09.528Z,27.45
2023-01-30T07:12:37.047Z,25.27
2023-01-30T07:15:05.615Z,22.38
2023-01-30T07:17:33.222Z,26.17
2023-01-30T07:20:00.170Z,21.00
2023-01-30T07:22:27.069Z,17.02
2023-01-30T07:24:54.000Z,18.80
2023-01-30T07:27:20.979Z,24.83
2023-01-30T07:29:47.787Z,19.40
2023-01-30T07:32:18.433Z,23.90
2023-01-30T07:34:45.911Z,23.70
2023-01-30T07:37:13.014Z,26.35
2023-01-30T07:39:39.867Z,23.60
2023-01-30T07:42:07.031Z,29.08
2023-01-30T07:44:34.562Z,20.88
2023-01-30T07:47:01.838Z,25.52
2023-01-30T07:49:29.004Z,20.70
2023-01-30T07:51:55.942Z,23.75
2023-01-30T07:54:23.086Z,22.73
2023-01-30T07:56:49.938Z,25.27
2023-01-30T07:59:16.837Z,21.30
2023-01-30T08:01:43.714Z,22.10
2023-01-30T08:04:10.592Z,23.70
2023-01-30T08:06:39.412Z,21.77
2023-01-30T08:09:07.421Z,22.00
2023-01-30T08:11:34.981Z,19.90
2023-01-30T08:14:02.166Z,22.70
2023-01-30T08:16:29.156Z,21.02
2023-01-30T08:18:56.036Z,22.50
2023-01-30T08:21:22.956Z,23.17
2023-01-30T08:23:49.868Z,26.52
2023-01-30T08:26:16.962Z,21.83
2023-01-30T08:28:43.897Z,20.50
2023-01-30T08:31:13.394Z,20.73
2023-01-30T08:33:40.381Z,21.05
2023-01-30T08:36:07.661Z,17.08
2023-01-30T08:38:34.560Z,22.77
2023-01-30T08:41:04.122Z,21.00
2023-01-30T08:43:31.017Z,18.70
2023-01-30T08:45:57.906Z,14.82
2023-01-30T08:48:24.832Z,21.77
2023-01-30T08:50:55.811Z,22.75
2023-01-30T08:53:23.441Z,16.50
2023-01-30T08:55:53.997Z,18.15
2023-01-30T08:58:22.075Z,17.52
2023-01-30T09:00:50.550Z,16.08
2023-01-30T09:03:18.644Z,17.17
2023-01-30T09:05:46.024Z,18.95
2023-01-30T09:08:14.116Z,16.42
2023-01-30T09:10:40.917Z,16.33
2023-01-30T09:13:09.821Z,19.10
2023-01-30T09:15:36.959Z,14.82
2023-01-30T09:18:05.103Z,14.88
2023-01-30T09:20:32.233Z,18.02
2023-01-30T09:22:59.509Z,19.15
2023-01-30T09:25:26.364Z,18.35
2023-01-30T09:27:53.218Z,21.58
2023-01-30T09:30:20.510Z,24.23
2023-01-30T09:32:48.403Z,29.42
2023-01-30T09:35:15.448Z,26.55
2023-01-30T09:37:52.639Z,24.83
2023-01-30T09:40:26.660Z,25.73
2023-01-30T09:43:08.458Z,27.50
2023-01-30T09:45:47.445Z,25.40
2023-01-30T09:48:54.940Z,23.17
2023-01-30T09:51:35.768Z,25.60
2023-01-30T09:54:22.215Z,27.75
2023-01-30T09:57:22.728Z,23.60
2023-01-30T09:59:57.730Z,24.60
2023-01-30T10:02:37.275Z,20.83
2023-01-30T10:05:05.272Z,24.00
2023-01-30T10:07:52.425Z,19.38
2023-01-30T10:10:55.110Z,19.98
2023-01-30T10:13:49.564Z,20.75
2023-01-30T10:16:41.715Z,20.83
2023-01-30T10:19:11.449Z,19.40
2023-01-30T10:22:20.497Z,20.98
2023-01-30T10:25:02.206Z,20.80
2023-01-30T10:27:31.245Z,21.08
2023-01-30T10:30:02.707Z,19.52
2023-01-30T10:32:30.329Z,17.05
2023-01-30T10:35:02.753Z,16.50
2023-01-30T10:37:42.765Z,16.98
2023-01-30T10:40:33.723Z,17.95
2023-01-30T10:43:19.186Z,24.25
2023-01-30T10:45:58.193Z,18.42
2023-01-30T10:48:43.215Z,16.70
2023-01-30T10:51:34.849Z,18.42
2023-01-30T10:54:19.275Z,19.25
2023-01-30T10:56:57.436Z,19.33
2023-01-30T10:59:50.927Z,18.38
2023-01-30T11:02:36.246Z,17.65
2023-01-30T11:05:13.239Z,18.58
2023-01-30T11:07:42.250Z,16.85
2023-01-30T11:10:19.283Z,17.17
2023-01-30T11:12:46.927Z,18.52
2023-01-30T11:15:13.818Z,20.77
2023-01-30T11:17:43.246Z,18.70
2023-01-30T11:20:20.427Z,19.77
2023-01-30T11:23:12.814Z,19.20
2023-01-30T11:26:05.507Z,18.60
2023-01-30T11:28:42.384Z,21.02
2023-01-30T11:31:42.114Z,19.95
2023-01-30T11:34:16.311Z,20.58
2023-01-30T11:36:43.547Z,21.83
2023-01-30T11:39:13.484Z,20.15
2023-01-30T11:41:56.917Z,17.52
2023-01-30T11:44:27.815Z,16.42
2023-01-30T11:46:58.144Z,17.17
2023-01-30T11:49:46.432Z,16.83
2023-01-30T11:52:24.448Z,15.55
2023-01-30T11:54:52.348Z,15.95
2023-01-30T11:57:20.606Z,14.55
2023-01-30T11:59:55.333Z,15.93
2023-01-30T12:02:36.375Z,15.02
2023-01-30T12:05:19.467Z,15.43
2023-01-30T12:07:49.116Z,14.68
2023-01-30T12:10:25.378Z,16.60
2023-01-30T12:12:55.468Z,15.40
2023-01-30T12:15:27.611Z,15.95
2023-01-30T12:17:57.461Z,14.70
2023-01-30T12:20:36.161Z,15.35
2023-01-30T12:23:15.233Z,17.70
2023-01-30T12:26:10.764Z,17.02
2023-01-30T12:28:40.474Z,18.92
2023-01-30T12:31:39.663Z,18.55
2023-01-30T12:34:09.848Z,18.70
2023-01-30T12:36:56.818Z,18.35
2023-01-30T12:39:42.009Z,17.33
2023-01-30T12:42:33.551Z,17.65
2023-01-30T12:45:15.627Z,18.30
2023-01-30T12:48:00.640Z,19.98
2023-01-30T12:50:45.666Z,18.15
2023-01-30T12:53:44.528Z,17.30
2023-01-30T12:56:46.941Z,19.02
2023-01-30T12:59:59.709Z,18.20
2023-01-30T13:02:38.640Z,18.45
2023-01-30T13:05:17.479Z,17.95
2023-01-30T13:08:41.505Z,18.73
2023-01-30T13:11:48.515Z,16.58
2023-01-30T13:14:55.878Z,17.17
2023-01-30T13:17:50.587Z,16.10
2023-01-30T13:20:23.133Z,17.13
2023-01-30T13:23:10.194Z,23.58
2023-01-30T13:25:42.333Z,16.98
2023-01-30T13:28:39.804Z,19.70
2023-01-30T13:31:12.883Z,18.75
2023-01-30T13:33:44.805Z,20.02
2023-01-30T13:36:11.706Z,18.30
2023-01-30T13:38:49.923Z,17.30
2023-01-30T13:41:18.869Z,19.35
2023-01-30T13:43:51.794Z,20.25
2023-01-30T13:46:24.720Z,17.00
2023-01-30T13:49:03.538Z,21.35
2023-01-30T13:51:49.595Z,25.70
2023-01-30T13:54:37.861Z,15.80
2023-01-30T13:57:13.843Z,19.40
2023-01-30T14:00:12.893Z,16.52
2023-01-30T14:03:08.495Z,16.30
2023-01-30T14:05:59.147Z,16.95
2023-01-30T14:09:01.626Z,16.92
2023-01-30T14:11:44.924Z,17.08
2023-01-30T14:14:29.477Z,23.65
2023-01-30T14:17:08.525Z,21.33
2023-01-30T14:19:45.697Z,16.80
2023-01-30T14:22:42.510Z,17.50
2023-01-30T14:25:27.926Z,19.00
2023-01-30T14:28:17.904Z,27.05
2023-01-30T14:30:44.737Z,19.15
2023-01-30T14:33:20.813Z,20.85
2023-01-30T14:35:49.800Z,17.77
2023-01-30T14:38:19.553Z,23.58
2023-01-30T14:43:53.105Z,20.98
2023-01-30T14:46:20.580Z,23.35
2023-01-30T14:49:05.267Z,19.23
2023-01-30T14:54:14.959Z,17.13
2023-01-30T14:56:54.383Z,17.33
2023-01-30T14:59:24.509Z,15.85
2023-01-30T15:02:04.895Z,21.08
2023-01-30T15:04:40.151Z,27.60
2023-01-30T15:07:19.029Z,19.58
2023-01-30T15:10:24.021Z,18.30
2023-01-30T15:13:06.227Z,19.38
2023-01-30T15:30:17.231Z,33.22
2023-01-30T15:32:44.909Z,21.15
2023-01-30T15:35:11.953Z,19.65
2023-01-30T15:37:51.960Z,18.92
2023-01-30T15:40:25.913Z,19.05
2023-01-30T15:43:02.339Z,19.08
2023-01-30T15:45:48.076Z,19.52
2023-01-30T15:48:41.520Z,19.10
2023-01-30T15:51:13.313Z,14.35
2023-01-30T15:53:44.327Z,18.48
2023-01-30T15:56:20.724Z,27.80
2023-01-30T15:58:47.715Z,20.67
2023-01-30T16:01:20.132Z,21.67
2023-01-30T16:03:50.117Z,17.52
2023-01-30T16:06:43.462Z,23.63
2023-01-30T16:09:22.387Z,19.15
2023-01-30T16:11:50.563Z,22.25
2023-01-30T16:14:20.087Z,19.40
2023-01-30T16:16:50.258Z,21.75
2023-01-30T16:19:32.644Z,18.55
2023-01-30T16:22:03.312Z,19.23
2023-01-30T16:24:33.233Z,20.75
2023-01-30T16:27:08.175Z,19.38
2023-01-30T16:29:51.261Z,19.60
2023-01-30T16:32:25.036Z,20.17
2023-01-30T16:35:11.828Z,22.53
2023-01-30T16:37:38.626Z,20.10
2023-01-30T16:40:11.274Z,16.83
2023-01-30T16:42:38.252Z,20.52
2023-01-30T16:45:14.236Z,22.85
2023-01-30T16:47:41.251Z,17.10
2023-01-30T16:50:20.431Z,16.45
2023-01-30T16:52:51.770Z,17.48
2023-01-30T16:55:22.633Z,18.35
2023-01-30T16:58:00.171Z,18.35
2023-01-30T17:00:41.098Z,20.67
2023-01-30T17:03:31.761Z,21.38
2023-01-30T17:05:59.743Z,19.20
2023-01-30T17:08:55.823Z,18.67
2023-01-30T17:11:30.943Z,18.23
2023-01-30T17:14:16.750Z,21.25
2023-01-30T17:16:46.239Z,19.73
2023-01-30T17:19:14.504Z,21.50
2023-01-30T17:21:51.068Z,20.38
2023-01-30T17:24:21.315Z,20.50
2023-01-30T17:26:50.845Z,19.20
2023-01-30T17:29:41.016Z,20.27
2023-01-30T17:32:11.872Z,19.13
2023-01-30T17:34:41.302Z,20.10
2023-01-30T17:37:18.328Z,20.35
2023-01-30T17:39:45.374Z,19.08
2023-01-30T17:42:15.102Z,19.00
2023-01-30T17:44:42.200Z,18.75
2023-01-30T17:47:12.556Z,23.27
2023-01-30T17:49:40.201Z,25.80
2023-01-30T17:52:07.288Z,25.50
2023-01-30T17:54:34.619Z,19.35
2023-01-30T17:57:09.734Z,20.65
2023-01-30T17:59:36.865Z,34.60
2023-01-30T18:02:04.506Z,23.80
2023-01-30T18:04:31.306Z,19.90
2023-01-30T18:07:04.892Z,20.55
2023-01-30T18:09:32.306Z,22.40
2023-01-30T18:11:59.303Z,28.65
2023-01-30T18:14:26.130Z,20.55
2023-01-30T18:16:55.998Z,20.15
2023-01-30T18:19:24.239Z,22.88
2023-01-30T18:21:51.268Z,23.23
2023-01-30T18:24:18.616Z,20.38
2023-01-30T18:26:46.084Z,23.13
2023-01-30T18:29:13.457Z,22.40
2023-01-30T18:31:41.501Z,27.70
2023-01-30T18:34:10.609Z,22.90
2023-01-30T18:36:38.385Z,23.52
2023-01-30T18:39:06.246Z,23.48
2023-01-30T18:41:35.255Z,24.88
2023-01-30T18:44:04.783Z,25.90
2023-01-30T18:46:32.603Z,24.92
2023-01-30T18:48:59.847Z,22.88
2023-01-30T18:51:33.987Z,24.23
2023-01-30T18:54:01.957Z,22.48
2023-01-30T18:56:34.163Z,23.42
2023-01-30T18:59:04.268Z,23.90
2023-01-30T19:01:38.837Z,24.65
2023-01-30T19:06:37.597Z,21.95
2023-01-30T19:09:05.516Z,23.55
2023-01-30T19:11:50.808Z,25.08
2023-01-30T19:14:17.820Z,27.08
2023-01-30T19:16:44.734Z,26.85
2023-01-30T19:19:11.791Z,25.52
2023-01-30T19:21:39.051Z,24.48
2023-01-30T19:24:08.256Z,25.58
2023-01-30T19:26:35.456Z,29.83
2023-01-30T19:29:02.373Z,29.10
2023-01-30T19:31:29.465Z,26.05
2023-01-30T19:33:59.292Z,31.05
2023-01-30T19:36:27.740Z,31.30
2023-01-30T19:38:55.071Z,25.13
2023-01-30T19:41:24.624Z,28.02
2023-01-30T19:43:53.435Z,29.02
2023-01-30T19:46:20.729Z,28.42
2023-01-30T19:48:49.056Z,29.58
2023-01-30T19:51:20.579Z,34.03
2023-01-30T19:54:01.337Z,31.20
2023-01-30T19:56:29.705Z,37.38
2023-01-30T19:58:58.686Z,84.80
2023-01-30T20:01:29.707Z,29.35
2023-01-30T20:03:57.193Z,29.63
2023-01-30T20:06:26.804Z,34.17
2023-01-30T20:08:56.437Z,30.27
2023-01-30T20:11:23.508Z,32.28
2023-01-30T20:13:51.540Z,29.58
2023-01-30T20:16:21.711Z,30.52
2023-01-30T20:18:54.300Z,36.08
2023-01-30T20:21:22.648Z,39.40
2023-01-30T20:23:50.446Z,37.55
2023-01-30T20:26:23.062Z,34.85
2023-01-30T20:28:50.303Z,35.33
2023-01-30T20:31:20.060Z,32.47
2023-01-30T20:33:47.520Z,36.28
2023-01-30T20:36:17.786Z,36.42
2023-01-30T20:38:45.488Z,34.65
2023-01-30T20:41:15.372Z,41.42
2023-01-30T20:43:49.091Z,41.35
2023-01-30T20:46:18.873Z,40.55
2023-01-30T20:48:46.317Z,35.67
2023-01-30T20:51:16.030Z,33.45
2023-01-30T20:53:48.442Z,30.73
2023-01-30T20:56:15.520Z,36.72
2023-01-30T20:58:42.515Z,38.47
2023-01-30T21:01:18.011Z,39.95
2023-01-30T21:03:50.655Z,34.15
2023-01-30T21:06:37.173Z,34.55
2023-01-30T21:09:08.792Z,30.33
2023-01-30T21:11:40.860Z,35.05
2023-01-30T21:14:12.122Z,33.70
2023-01-30T21:16:39.746Z,32.80
2023-01-30T21:19:11.139Z,36.10
2023-01-30T21:22:07.595Z,29.85
2023-01-30T21:24:34.563Z,34.42
2023-01-30T21:27:01.883Z,35.88
2023-01-30T21:29:29.478Z,35.90
2023-01-30T21:31:57.700Z,34.15
2023-01-30T21:34:24.641Z,36.53
2023-01-30T21:37:09.992Z,36.30
2023-01-30T21:39:55.837Z,38.08
2023-01-30T21:42:41.087Z,39.28
2023-01-30T21:45:08.587Z,38.70
2023-01-30T21:47:35.449Z,40.35
2023-01-30T21:50:02.454Z,40.25
2023-01-30T21:52:32.042Z,41.72
2023-01-30T21:54:59.392Z,39.88
2023-01-30T21:57:26.172Z,37.35
2023-01-30T21:59:53.085Z,37.05
2023-01-30T22:02:20.137Z,38.25
2023-01-30T22:04:47.080Z,50.35
2023-01-30T22:07:14.179Z,43.03
2023-01-30T22:09:41.134Z,40.15
2023-01-30T22:12:08.059Z,43.65
2023-01-30T22:14:36.361Z,47.15
2023-01-30T22:17:03.514Z,44.25
2023-01-30T22:19:35.468Z,42.08
2023-01-30T22:22:02.909Z,42.83
2023-01-30T22:24:29.968Z,49.72
2023-01-30T22:26:57.138Z,47.17
2023-01-30T22:29:24.023Z,43.83
2023-01-30T22:31:51.432Z,52.97
2023-01-30T22:34:18.523Z,48.00
2023-01-30T22:36:45.441Z,46.40
2023-01-30T22:39:12.337Z,48.20
2023-01-30T22:41:39.694Z,45.13
2023-01-30T22:44:09.337Z,51.30
2023-01-30T22:46:38.693Z,51.55
2023-01-30T22:49:06.948Z,57.42
2023-01-30T22:51:39.485Z,53.47
2023-01-30T22:54:12.753Z,57.75
2023-01-30T22:56:42.067Z,54.75
2023-01-30T22:59:09.659Z,57.97
2023-01-30T23:01:42.109Z,57.47
2023-01-30T23:04:14.837Z,63.80
2023-01-30T23:06:42.893Z,63.97
2023-01-30T23:09:13.572Z,55.88
2023-01-30T23:12:10.407Z,61.67
2023-01-30T23:14:38.238Z,60.03
2023-01-30T23:17:25.690Z,59.33
2023-01-30T23:19:53.898Z,55.58
2023-01-30T23:22:20.926Z,51.40
2023-01-30T23:24:48.812Z,52.78
2023-01-30T23:27:15.812Z,59.13
2023-01-30T23:29:43.080Z,54.88
2023-01-30T23:32:10.026Z,53.58
2023-01-30T23:34:37.056Z,56.60
2023-01-30T23:37:03.881Z,51.13
2023-01-30T23:39:30.696Z,56.67
2023-01-30T23:41:57.515Z,49.58
2023-01-30T23:44:24.452Z,46.40
2023-01-30T23:46:51.336Z,50.88
2023-01-30T23:49:18.398Z,43.40
2023-01-30T23:51:46.376Z,42.13
2023-01-30T23:54:13.802Z,45.25
2023-01-30T23:56:43.101Z,43.10
2023-01-30T23:59:10.305Z,43.15
